sensor_id;sensor_type;location;lat;lon;timestamp;P1;durP1;ratioP1;P2;durP2;ratioP2
67602;SDS011;54417;47.454;18.918;2023-04-07T00:04:21;24.75;;;16.02;;
67602;SDS011;54417;47.454;18.918;2023-04-07T00:09:45;17.17;;;11.10;;
67602;SDS011;54417;47.454;18.918;2023-04-07T00:15:10;22.08;;;14.60;;
67602;SDS011;54417;47.454;18.918;2023-04-07T00:20:34;29.70;;;16.35;;
67602;SDS011;54417;47.454;18.918;2023-04-07T00:25:58;25.50;;;15.13;;
67602;SDS011;54417;47.454;18.918;2023-04-07T00:31:23;27.00;;;14.70;;
67602;SDS011;54417;47.454;18.918;2023-04-07T00:36:47;19.15;;;13.82;;
67602;SDS011;54417;47.454;18.918;2023-04-07T00:42:13;23.50;;;15.00;;
67602;SDS011;54417;47.454;18.918;2023-04-07T00:47:38;24.15;;;14.13;;
67602;SDS011;54417;47.454;18.918;2023-04-07T00:53:02;16.40;;;11.60;;
67602;SDS011;54417;47.454;18.918;2023-04-07T00:58:27;20.80;;;13.82;;
67602;SDS011;54417;47.454;18.918;2023-04-07T01:03:53;15.50;;;11.23;;
67602;SDS011;54417;47.454;18.918;2023-04-07T01:09:24;24.15;;;13.40;;
67602;SDS011;54417;47.454;18.918;2023-04-07T01:14:55;24.20;;;14.63;;
67602;SDS011;54417;47.454;18.918;2023-04-07T01:20:33;17.35;;;12.15;;
67602;SDS011;54417;47.454;18.918;2023-04-07T01:26:03;20.75;;;13.85;;
67602;SDS011;54417;47.454;18.918;2023-04-07T01:31:41;23.30;;;15.07;;
67602;SDS011;54417;47.454;18.918;2023-04-07T01:37:06;19.80;;;13.57;;
67602;SDS011;54417;47.454;18.918;2023-04-07T01:42:31;19.45;;;13.25;;
67602;SDS011;54417;47.454;18.918;2023-04-07T01:47:58;24.67;;;14.73;;
67602;SDS011;54417;47.454;18.918;2023-04-07T01:53:22;20.75;;;13.52;;
67602;SDS011;54417;47.454;18.918;2023-04-07T01:58:47;21.40;;;14.07;;
67602;SDS011;54417;47.454;18.918;2023-04-07T02:04:24;20.33;;;12.57;;
67602;SDS011;54417;47.454;18.918;2023-04-07T02:09:54;20.27;;;12.82;;
67602;SDS011;54417;47.454;18.918;2023-04-07T02:15:20;22.25;;;14.35;;
67602;SDS011;54417;47.454;18.918;2023-04-07T02:20:47;19.50;;;14.48;;
67602;SDS011;54417;47.454;18.918;2023-04-07T02:26:12;21.83;;;13.50;;
67602;SDS011;54417;47.454;18.918;2023-04-07T02:31:36;25.90;;;14.27;;
67602;SDS011;54417;47.454;18.918;2023-04-07T02:37:01;18.67;;;13.60;;
67602;SDS011;54417;47.454;18.918;2023-04-07T02:42:25;20.80;;;13.55;;
67602;SDS011;54417;47.454;18.918;2023-04-07T02:47:49;21.50;;;15.20;;
67602;SDS011;54417;47.454;18.918;2023-04-07T02:53:14;22.08;;;13.70;;
67602;SDS011;54417;47.454;18.918;2023-04-07T02:58:38;24.23;;;14.90;;
67602;SDS011;54417;47.454;18.918;2023-04-07T03:04:02;21.58;;;14.18;;
67602;SDS011;54417;47.454;18.918;2023-04-07T03:09:28;20.40;;;14.40;;
67602;SDS011;54417;47.454;18.918;2023-04-07T03:14:52;23.30;;;14.88;;
67602;SDS011;54417;47.454;18.918;2023-04-07T03:20:18;21.23;;;15.00;;
67602;SDS011;54417;47.454;18.918;2023-04-07T03:25:43;23.38;;;15.25;;
67602;SDS011;54417;47.454;18.918;2023-04-07T03:31:10;22.38;;;14.80;;
67602;SDS011;54417;47.454;18.918;2023-04-07T03:36:34;22.92;;;15.15;;
67602;SDS011;54417;47.454;18.918;2023-04-07T03:42:01;27.00;;;16.20;;
67602;SDS011;54417;47.454;18.918;2023-04-07T03:47:27;23.02;;;16.02;;
67602;SDS011;54417;47.454;18.918;2023-04-07T03:52:55;24.85;;;14.05;;
67602;SDS011;54417;47.454;18.918;2023-04-07T03:58:24;26.38;;;15.90;;
67602;SDS011;54417;47.454;18.918;2023-04-07T04:03:48;25.45;;;16.30;;
67602;SDS011;54417;47.454;18.918;2023-04-07T04:09:21;24.50;;;16.05;;
67602;SDS011;54417;47.454;18.918;2023-04-07T04:14:47;20.65;;;12.65;;
67602;SDS011;54417;47.454;18.918;2023-04-07T04:20:12;24.52;;;15.68;;
67602;SDS011;54417;47.454;18.918;2023-04-07T04:25:42;25.33;;;14.70;;
67602;SDS011;54417;47.454;18.918;2023-04-07T04:31:08;22.00;;;15.25;;
67602;SDS011;54417;47.454;18.918;2023-04-07T04:36:37;23.83;;;15.32;;
67602;SDS011;54417;47.454;18.918;2023-04-07T04:42:02;22.77;;;16.58;;
67602;SDS011;54417;47.454;18.918;2023-04-07T04:47:31;21.40;;;15.25;;
67602;SDS011;54417;47.454;18.918;2023-04-07T04:52:57;27.90;;;16.42;;
67602;SDS011;54417;47.454;18.918;2023-04-07T04:58:21;24.45;;;15.07;;
67602;SDS011;54417;47.454;18.918;2023-04-07T05:03:50;23.88;;;15.98;;
67602;SDS011;54417;47.454;18.918;2023-04-07T05:09:19;23.95;;;16.60;;
67602;SDS011;54417;47.454;18.918;2023-04-07T05:14:44;17.10;;;13.02;;
67602;SDS011;54417;47.454;18.918;2023-04-07T05:20:09;24.52;;;16.83;;
67602;SDS011;54417;47.454;18.918;2023-04-07T05:25:35;27.75;;;17.20;;
67602;SDS011;54417;47.454;18.918;2023-04-07T05:31:00;18.60;;;13.05;;
67602;SDS011;54417;47.454;18.918;2023-04-07T05:36:29;23.92;;;15.32;;
67602;SDS011;54417;47.454;18.918;2023-04-07T05:41:53;27.05;;;17.20;;
67602;SDS011;54417;47.454;18.918;2023-04-07T05:47:20;23.77;;;17.20;;
67602;SDS011;54417;47.454;18.918;2023-04-07T05:52:48;28.83;;;18.15;;
67602;SDS011;54417;47.454;18.918;2023-04-07T05:58:17;20.35;;;12.70;;
67602;SDS011;54417;47.454;18.918;2023-04-07T06:03:45;26.27;;;17.25;;
67602;SDS011;54417;47.454;18.918;2023-04-07T06:09:16;23.05;;;15.10;;
67602;SDS011;54417;47.454;18.918;2023-04-07T06:14:42;27.63;;;17.88;;
67602;SDS011;54417;47.454;18.918;2023-04-07T06:20:06;26.02;;;16.30;;
67602;SDS011;54417;47.454;18.918;2023-04-07T06:25:32;26.42;;;17.00;;
67602;SDS011;54417;47.454;18.918;2023-04-07T06:30:56;25.17;;;16.77;;
67602;SDS011;54417;47.454;18.918;2023-04-07T06:36:22;23.80;;;15.18;;
67602;SDS011;54417;47.454;18.918;2023-04-07T06:41:48;25.75;;;17.80;;
67602;SDS011;54417;47.454;18.918;2023-04-07T06:47:12;27.13;;;18.05;;
67602;SDS011;54417;47.454;18.918;2023-04-07T06:52:36;26.15;;;17.75;;
67602;SDS011;54417;47.454;18.918;2023-04-07T06:58:01;26.05;;;18.15;;
67602;SDS011;54417;47.454;18.918;2023-04-07T07:03:26;25.80;;;17.67;;
67602;SDS011;54417;47.454;18.918;2023-04-07T07:08:50;24.65;;;17.08;;
67602;SDS011;54417;47.454;18.918;2023-04-07T07:14:16;23.02;;;16.40;;
67602;SDS011;54417;47.454;18.918;2023-04-07T07:19:39;21.92;;;15.48;;
67602;SDS011;54417;47.454;18.918;2023-04-07T07:25:04;24.00;;;16.90;;
67602;SDS011;54417;47.454;18.918;2023-04-07T07:30:29;23.50;;;16.65;;
67602;SDS011;54417;47.454;18.918;2023-04-07T07:35:53;21.92;;;15.45;;
67602;SDS011;54417;47.454;18.918;2023-04-07T07:41:17;25.23;;;16.77;;
67602;SDS011;54417;47.454;18.918;2023-04-07T07:46:43;24.27;;;17.67;;
67602;SDS011;54417;47.454;18.918;2023-04-07T07:52:07;27.42;;;17.52;;
67602;SDS011;54417;47.454;18.918;2023-04-07T07:57:32;24.33;;;16.23;;
67602;SDS011;54417;47.454;18.918;2023-04-07T08:02:57;29.25;;;18.48;;
67602;SDS011;54417;47.454;18.918;2023-04-07T08:08:21;24.58;;;17.38;;
67602;SDS011;54417;47.454;18.918;2023-04-07T08:13:45;27.17;;;17.95;;
67602;SDS011;54417;47.454;18.918;2023-04-07T08:19:10;25.77;;;17.10;;
67602;SDS011;54417;47.454;18.918;2023-04-07T08:24:35;23.90;;;15.73;;
67602;SDS011;54417;47.454;18.918;2023-04-07T08:29:59;24.25;;;16.55;;
67602;SDS011;54417;47.454;18.918;2023-04-07T08:35:26;24.67;;;17.65;;
67602;SDS011;54417;47.454;18.918;2023-04-07T08:41:01;26.50;;;17.00;;
67602;SDS011;54417;47.454;18.918;2023-04-07T08:46:27;23.85;;;16.65;;
67602;SDS011;54417;47.454;18.918;2023-04-07T08:51:53;25.02;;;18.17;;
67602;SDS011;54417;47.454;18.918;2023-04-07T08:57:19;28.63;;;17.17;;
67602;SDS011;54417;47.454;18.918;2023-04-07T09:02:43;27.05;;;18.05;;
67602;SDS011;54417;47.454;18.918;2023-04-07T09:08:10;27.55;;;18.33;;
67602;SDS011;54417;47.454;18.918;2023-04-07T09:13:34;36.22;;;21.25;;
67602;SDS011;54417;47.454;18.918;2023-04-07T09:18:58;24.13;;;17.02;;
67602;SDS011;54417;47.454;18.918;2023-04-07T09:24:24;25.88;;;16.83;;
67602;SDS011;54417;47.454;18.918;2023-04-07T09:29:50;22.95;;;17.65;;
67602;SDS011;54417;47.454;18.918;2023-04-07T09:35:37;23.85;;;16.30;;
67602;SDS011;54417;47.454;18.918;2023-04-07T09:41:16;24.77;;;16.70;;
67602;SDS011;54417;47.454;18.918;2023-04-07T09:46:47;23.55;;;16.17;;
67602;SDS011;54417;47.454;18.918;2023-04-07T09:52:11;24.08;;;17.52;;
67602;SDS011;54417;47.454;18.918;2023-04-07T09:57:37;28.30;;;20.50;;
67602;SDS011;54417;47.454;18.918;2023-04-07T10:03:02;24.52;;;16.45;;
67602;SDS011;54417;47.454;18.918;2023-04-07T10:08:27;21.65;;;15.95;;
67602;SDS011;54417;47.454;18.918;2023-04-07T10:13:55;21.27;;;15.80;;
67602;SDS011;54417;47.454;18.918;2023-04-07T10:19:19;20.95;;;15.00;;
67602;SDS011;54417;47.454;18.918;2023-04-07T10:24:45;19.25;;;14.77;;
67602;SDS011;54417;47.454;18.918;2023-04-07T10:30:17;24.13;;;16.38;;
67602;SDS011;54417;47.454;18.918;2023-04-07T10:36:02;21.55;;;15.70;;
67602;SDS011;54417;47.454;18.918;2023-04-07T10:41:30;19.92;;;14.43;;
67602;SDS011;54417;47.454;18.918;2023-04-07T10:47:02;22.33;;;15.68;;
67602;SDS011;54417;47.454;18.918;2023-04-07T10:52:27;18.65;;;14.63;;
67602;SDS011;54417;47.454;18.918;2023-04-07T11:03:39;22.35;;;14.23;;
67602;SDS011;54417;47.454;18.918;2023-04-07T11:09:04;20.30;;;14.65;;
67602;SDS011;54417;47.454;18.918;2023-04-07T11:14:28;20.40;;;15.52;;
67602;SDS011;54417;47.454;18.918;2023-04-07T11:19:54;19.98;;;14.52;;
67602;SDS011;54417;47.454;18.918;2023-04-07T11:25:20;21.80;;;16.00;;
67602;SDS011;54417;47.454;18.918;2023-04-07T11:30:45;20.33;;;14.77;;
67602;SDS011;54417;47.454;18.918;2023-04-07T11:36:12;20.05;;;14.82;;
67602;SDS011;54417;47.454;18.918;2023-04-07T11:41:43;21.42;;;14.40;;
67602;SDS011;54417;47.454;18.918;2023-04-07T11:47:10;19.65;;;14.00;;
67602;SDS011;54417;47.454;18.918;2023-04-07T11:52:40;17.75;;;13.63;;
67602;SDS011;54417;47.454;18.918;2023-04-07T11:58:05;18.63;;;14.65;;
67602;SDS011;54417;47.454;18.918;2023-04-07T12:03:31;18.83;;;13.18;;
67602;SDS011;54417;47.454;18.918;2023-04-07T12:08:57;20.15;;;13.68;;
67602;SDS011;54417;47.454;18.918;2023-04-07T12:14:20;20.98;;;14.77;;
67602;SDS011;54417;47.454;18.918;2023-04-07T12:19:44;20.63;;;14.65;;
67602;SDS011;54417;47.454;18.918;2023-04-07T12:25:10;19.60;;;14.52;;
67602;SDS011;54417;47.454;18.918;2023-04-07T12:30:33;20.73;;;15.20;;
67602;SDS011;54417;47.454;18.918;2023-04-07T12:35:58;25.15;;;15.35;;
67602;SDS011;54417;47.454;18.918;2023-04-07T12:41:23;20.48;;;15.52;;
67602;SDS011;54417;47.454;18.918;2023-04-07T12:46:47;23.05;;;16.60;;
67602;SDS011;54417;47.454;18.918;2023-04-07T12:52:11;19.50;;;14.70;;
67602;SDS011;54417;47.454;18.918;2023-04-07T12:57:36;18.60;;;14.50;;
67602;SDS011;54417;47.454;18.918;2023-04-07T13:03:00;23.02;;;16.25;;
67602;SDS011;54417;47.454;18.918;2023-04-07T13:08:24;20.70;;;14.07;;
67602;SDS011;54417;47.454;18.918;2023-04-07T13:13:49;19.42;;;13.82;;
67602;SDS011;54417;47.454;18.918;2023-04-07T13:19:17;17.50;;;13.25;;
67602;SDS011;54417;47.454;18.918;2023-04-07T13:24:41;19.13;;;14.40;;
67602;SDS011;54417;47.454;18.918;2023-04-07T13:30:07;17.50;;;13.68;;
67602;SDS011;54417;47.454;18.918;2023-04-07T13:35:31;21.25;;;14.43;;
67602;SDS011;54417;47.454;18.918;2023-04-07T13:40:57;20.08;;;14.45;;
67602;SDS011;54417;47.454;18.918;2023-04-07T13:46:22;21.23;;;15.52;;
67602;SDS011;54417;47.454;18.918;2023-04-07T13:51:50;21.85;;;14.70;;
67602;SDS011;54417;47.454;18.918;2023-04-07T13:57:14;19.30;;;13.75;;
67602;SDS011;54417;47.454;18.918;2023-04-07T14:02:43;38.55;;;20.98;;
67602;SDS011;54417;47.454;18.918;2023-04-07T14:08:09;33.17;;;20.52;;
67602;SDS011;54417;47.454;18.918;2023-04-07T14:13:33;22.58;;;15.40;;
67602;SDS011;54417;47.454;18.918;2023-04-07T14:18:58;22.10;;;16.02;;
67602;SDS011;54417;47.454;18.918;2023-04-07T14:24:23;29.85;;;19.65;;
67602;SDS011;54417;47.454;18.918;2023-04-07T14:29:47;41.95;;;25.15;;
67602;SDS011;54417;47.454;18.918;2023-04-07T14:35:13;28.10;;;18.27;;
67602;SDS011;54417;47.454;18.918;2023-04-07T14:40:36;48.08;;;23.90;;
67602;SDS011;54417;47.454;18.918;2023-04-07T14:46:00;50.45;;;27.85;;
67602;SDS011;54417;47.454;18.918;2023-04-07T14:51:26;46.85;;;26.13;;
67602;SDS011;54417;47.454;18.918;2023-04-07T14:56:49;41.40;;;25.95;;
67602;SDS011;54417;47.454;18.918;2023-04-07T15:02:13;28.13;;;19.85;;
67602;SDS011;54417;47.454;18.918;2023-04-07T15:07:39;39.30;;;23.05;;
67602;SDS011;54417;47.454;18.918;2023-04-07T15:13:03;32.45;;;21.63;;
67602;SDS011;54417;47.454;18.918;2023-04-07T15:18:27;34.03;;;20.25;;
67602;SDS011;54417;47.454;18.918;2023-04-07T15:23:52;30.95;;;20.50;;
67602;SDS011;54417;47.454;18.918;2023-04-07T15:29:16;32.25;;;21.27;;
67602;SDS011;54417;47.454;18.918;2023-04-07T15:34:40;29.67;;;21.27;;
67602;SDS011;54417;47.454;18.918;2023-04-07T15:40:06;31.17;;;20.85;;
67602;SDS011;54417;47.454;18.918;2023-04-07T15:45:30;36.45;;;22.52;;
67602;SDS011;54417;47.454;18.918;2023-04-07T15:50:54;37.55;;;23.27;;
67602;SDS011;54417;47.454;18.918;2023-04-07T15:56:19;37.17;;;24.98;;
67602;SDS011;54417;47.454;18.918;2023-04-07T16:01:46;34.83;;;24.40;;
67602;SDS011;54417;47.454;18.918;2023-04-07T16:07:10;34.38;;;22.67;;
67602;SDS011;54417;47.454;18.918;2023-04-07T16:12:35;34.88;;;22.67;;
67602;SDS011;54417;47.454;18.918;2023-04-07T16:18:03;34.65;;;22.70;;
67602;SDS011;54417;47.454;18.918;2023-04-07T16:23:27;36.10;;;23.38;;
67602;SDS011;54417;47.454;18.918;2023-04-07T16:28:52;33.88;;;23.23;;
67602;SDS011;54417;47.454;18.918;2023-04-07T16:34:17;31.63;;;22.38;;
67602;SDS011;54417;47.454;18.918;2023-04-07T16:39:41;34.65;;;23.92;;
67602;SDS011;54417;47.454;18.918;2023-04-07T16:45:07;39.70;;;25.10;;
67602;SDS011;54417;47.454;18.918;2023-04-07T16:50:34;31.33;;;22.60;;
67602;SDS011;54417;47.454;18.918;2023-04-07T16:56:04;30.50;;;21.45;;
67602;SDS011;54417;47.454;18.918;2023-04-07T17:01:29;35.28;;;23.58;;
67602;SDS011;54417;47.454;18.918;2023-04-07T17:06:53;37.08;;;23.48;;
67602;SDS011;54417;47.454;18.918;2023-04-07T17:12:17;36.60;;;23.17;;
67602;SDS011;54417;47.454;18.918;2023-04-07T17:17:42;38.13;;;24.45;;
67602;SDS011;54417;47.454;18.918;2023-04-07T17:23:06;36.78;;;22.48;;
67602;SDS011;54417;47.454;18.918;2023-04-07T17:28:31;38.70;;;24.95;;
67602;SDS011;54417;47.454;18.918;2023-04-07T17:33:56;33.28;;;23.42;;
67602;SDS011;54417;47.454;18.918;2023-04-07T17:39:20;35.00;;;22.88;;
67602;SDS011;54417;47.454;18.918;2023-04-07T17:44:44;34.13;;;22.65;;
67602;SDS011;54417;47.454;18.918;2023-04-07T17:50:09;35.22;;;22.77;;
67602;SDS011;54417;47.454;18.918;2023-04-07T17:55:33;34.85;;;22.40;;
67602;SDS011;54417;47.454;18.918;2023-04-07T18:00:57;36.63;;;23.90;;
67602;SDS011;54417;47.454;18.918;2023-04-07T18:06:22;38.38;;;24.45;;
67602;SDS011;54417;47.454;18.918;2023-04-07T18:11:46;33.67;;;22.77;;
67602;SDS011;54417;47.454;18.918;2023-04-07T18:17:10;36.20;;;22.05;;
67602;SDS011;54417;47.454;18.918;2023-04-07T18:22:35;31.80;;;20.33;;
67602;SDS011;54417;47.454;18.918;2023-04-07T18:27:59;31.70;;;20.45;;
67602;SDS011;54417;47.454;18.918;2023-04-07T18:33:23;33.70;;;21.63;;
67602;SDS011;54417;47.454;18.918;2023-04-07T18:38:48;31.45;;;21.10;;
67602;SDS011;54417;47.454;18.918;2023-04-07T18:44:12;32.10;;;21.70;;
67602;SDS011;54417;47.454;18.918;2023-04-07T18:49:36;33.33;;;22.70;;
67602;SDS011;54417;47.454;18.918;2023-04-07T18:55:02;36.40;;;22.25;;
67602;SDS011;54417;47.454;18.918;2023-04-07T19:00:26;35.20;;;22.80;;
67602;SDS011;54417;47.454;18.918;2023-04-07T19:05:50;34.67;;;21.85;;
67602;SDS011;54417;47.454;18.918;2023-04-07T19:11:17;34.17;;;22.45;;
67602;SDS011;54417;47.454;18.918;2023-04-07T19:16:41;38.00;;;21.83;;
67602;SDS011;54417;47.454;18.918;2023-04-07T19:22:06;35.90;;;22.27;;
67602;SDS011;54417;47.454;18.918;2023-04-07T19:27:31;31.67;;;20.25;;
67602;SDS011;54417;47.454;18.918;2023-04-07T19:32:55;34.38;;;22.17;;
67602;SDS011;54417;47.454;18.918;2023-04-07T19:38:19;40.00;;;23.85;;
67602;SDS011;54417;47.454;18.918;2023-04-07T19:43:44;34.92;;;22.45;;
67602;SDS011;54417;47.454;18.918;2023-04-07T19:49:08;37.53;;;23.02;;
67602;SDS011;54417;47.454;18.918;2023-04-07T19:54:32;38.00;;;22.50;;
67602;SDS011;54417;47.454;18.918;2023-04-07T19:59:57;32.92;;;20.92;;
67602;SDS011;54417;47.454;18.918;2023-04-07T20:05:22;35.40;;;22.75;;
67602;SDS011;54417;47.454;18.918;2023-04-07T20:10:45;35.58;;;22.20;;
67602;SDS011;54417;47.454;18.918;2023-04-07T20:16:11;42.35;;;24.52;;
67602;SDS011;54417;47.454;18.918;2023-04-07T20:21:35;40.75;;;22.85;;
67602;SDS011;54417;47.454;18.918;2023-04-07T20:26:59;40.10;;;23.90;;
67602;SDS011;54417;47.454;18.918;2023-04-07T20:32:24;39.15;;;24.15;;
67602;SDS011;54417;47.454;18.918;2023-04-07T20:37:48;38.50;;;23.90;;
67602;SDS011;54417;47.454;18.918;2023-04-07T20:43:12;38.20;;;21.75;;
67602;SDS011;54417;47.454;18.918;2023-04-07T20:48:40;40.55;;;24.05;;
67602;SDS011;54417;47.454;18.918;2023-04-07T20:54:04;42.20;;;24.48;;
67602;SDS011;54417;47.454;18.918;2023-04-07T20:59:29;41.38;;;25.38;;
67602;SDS011;54417;47.454;18.918;2023-04-07T21:04:55;38.30;;;24.52;;
67602;SDS011;54417;47.454;18.918;2023-04-07T21:10:19;44.10;;;24.38;;
67602;SDS011;54417;47.454;18.918;2023-04-07T21:15:42;39.95;;;24.95;;
67602;SDS011;54417;47.454;18.918;2023-04-07T21:21:08;43.38;;;25.42;;
67602;SDS011;54417;47.454;18.918;2023-04-07T21:26:32;46.25;;;24.45;;
67602;SDS011;54417;47.454;18.918;2023-04-07T21:31:56;39.15;;;22.50;;
67602;SDS011;54417;47.454;18.918;2023-04-07T21:37:22;39.90;;;23.75;;
67602;SDS011;54417;47.454;18.918;2023-04-07T21:42:45;38.88;;;22.05;;
67602;SDS011;54417;47.454;18.918;2023-04-07T21:48:09;31.17;;;19.10;;
67602;SDS011;54417;47.454;18.918;2023-04-07T21:53:35;28.10;;;18.48;;
67602;SDS011;54417;47.454;18.918;2023-04-07T21:59:02;31.00;;;18.80;;
67602;SDS011;54417;47.454;18.918;2023-04-07T22:04:26;41.00;;;21.25;;
67602;SDS011;54417;47.454;18.918;2023-04-07T22:09:52;34.78;;;19.42;;
67602;SDS011;54417;47.454;18.918;2023-04-07T22:15:16;33.78;;;20.52;;
67602;SDS011;54417;47.454;18.918;2023-04-07T22:20:40;31.95;;;18.83;;
67602;SDS011;54417;47.454;18.918;2023-04-07T22:26:05;31.10;;;19.00;;
67602;SDS011;54417;47.454;18.918;2023-04-07T22:31:29;33.75;;;20.10;;
67602;SDS011;54417;47.454;18.918;2023-04-07T22:36:52;32.88;;;20.73;;
67602;SDS011;54417;47.454;18.918;2023-04-07T22:42:18;33.50;;;19.45;;
67602;SDS011;54417;47.454;18.918;2023-04-07T22:47:42;38.63;;;20.63;;
67602;SDS011;54417;47.454;18.918;2023-04-07T22:58:31;36.33;;;19.75;;
67602;SDS011;54417;47.454;18.918;2023-04-07T23:03:55;31.35;;;19.13;;
67602;SDS011;54417;47.454;18.918;2023-04-07T23:09:19;30.63;;;18.88;;
67602;SDS011;54417;47.454;18.918;2023-04-07T23:14:45;31.35;;;19.10;;
67602;SDS011;54417;47.454;18.918;2023-04-07T23:20:09;30.27;;;18.15;;
67602;SDS011;54417;47.454;18.918;2023-04-07T23:25:33;28.65;;;16.85;;
67602;SDS011;54417;47.454;18.918;2023-04-07T23:30:58;31.30;;;17.17;;
67602;SDS011;54417;47.454;18.918;2023-04-07T23:36:22;26.67;;;17.25;;
67602;SDS011;54417;47.454;18.918;2023-04-07T23:41:46;29.17;;;17.83;;
67602;SDS011;54417;47.454;18.918;2023-04-07T23:47:11;29.10;;;17.63;;
67602;SDS011;54417;47.454;18.918;2023-04-07T23:52:35;30.20;;;18.73;;
67602;SDS011;54417;47.454;18.918;2023-04-07T23:57:59;29.98;;;17.83;;
